Terminal Aerodrome Forecast
Issued by NWS

Home | Current Version | Previous Version | Text Only | Print | Product List | Glossary On
Versions: 1 2 3 4 5 6 7 8 9 10 11 12 13 14 15 16 17 18 19 20 21 22 23 24 25 26 27 28
000
FTUS42 KCAE 012000 AAA
TAFCUB
TAF AMD
KCUB 012059Z 0121/0218 18010G17KT P6SM SCT050 OVC120
     FM020400 20015G20KT 6SM -RA BKN025 OVC050
     FM020800 21016G22KT 4SM -RA BR SCT007 OVC015
     FM021400 27021G30KT P6SM -RA BKN035=

USA.gov is the U.S. government's official web portal to all federal, state and local government web resources and services.